sensor_id;sensor_type;location;lat;lon;timestamp;temperature;humidity
14877;DHT22;69691;48.172;17.070;2024-03-02T00:01:11;11.20;99.90
14877;DHT22;69691;48.172;17.070;2024-03-02T00:03:37;11.30;99.90
14877;DHT22;69691;48.172;17.070;2024-03-02T00:06:04;11.30;99.90
14877;DHT22;69691;48.172;17.070;2024-03-02T00:08:30;11.30;99.90
14877;DHT22;69691;48.172;17.070;2024-03-02T00:11:00;11.30;99.90
14877;DHT22;69691;48.172;17.070;2024-03-02T00:13:27;11.30;99.90
14877;DHT22;69691;48.172;17.070;2024-03-02T00:15:54;11.20;99.90
14877;DHT22;69691;48.172;17.070;2024-03-02T00:18:31;11.20;99.90
14877;DHT22;69691;48.172;17.070;2024-03-02T00:20:58;11.10;99.90
14877;DHT22;69691;48.172;17.070;2024-03-02T00:23:29;11.10;99.90
14877;DHT22;69691;48.172;17.070;2024-03-02T00:25:56;11.20;99.90
14877;DHT22;69691;48.172;17.070;2024-03-02T00:28:24;11.10;99.90
14877;DHT22;69691;48.172;17.070;2024-03-02T00:31:02;11.10;99.90
14877;DHT22;69691;48.172;17.070;2024-03-02T00:33:37;11.00;99.90
14877;DHT22;69691;48.172;17.070;2024-03-02T00:36:07;10.90;99.90
14877;DHT22;69691;48.172;17.070;2024-03-02T00:38:34;10.90;99.90
14877;DHT22;69691;48.172;17.070;2024-03-02T00:41:05;10.90;99.90
14877;DHT22;69691;48.172;17.070;2024-03-02T00:46:20;10.80;99.90
14877;DHT22;69691;48.172;17.070;2024-03-02T00:48:59;10.80;99.90
14877;DHT22;69691;48.172;17.070;2024-03-02T00:51:29;10.80;99.90
14877;DHT22;69691;48.172;17.070;2024-03-02T00:53:58;10.80;99.90
14877;DHT22;69691;48.172;17.070;2024-03-02T00:56:25;10.70;99.90
14877;DHT22;69691;48.172;17.070;2024-03-02T00:58:52;10.70;99.90
14877;DHT22;69691;48.172;17.070;2024-03-02T01:01:18;10.60;99.90
14877;DHT22;69691;48.172;17.070;2024-03-02T01:03:45;10.60;99.90
14877;DHT22;69691;48.172;17.070;2024-03-02T01:06:11;10.50;99.90
14877;DHT22;69691;48.172;17.070;2024-03-02T01:08:38;10.50;99.90
14877;DHT22;69691;48.172;17.070;2024-03-02T01:11:04;10.40;99.90
14877;DHT22;69691;48.172;17.070;2024-03-02T01:13:31;10.30;99.90
14877;DHT22;69691;48.172;17.070;2024-03-02T01:15:57;10.30;99.90
14877;DHT22;69691;48.172;17.070;2024-03-02T01:18:24;10.20;99.90
14877;DHT22;69691;48.172;17.070;2024-03-02T01:20:50;10.20;99.90
14877;DHT22;69691;48.172;17.070;2024-03-02T01:23:22;10.20;99.90
14877;DHT22;69691;48.172;17.070;2024-03-02T01:25:49;10.20;99.90
14877;DHT22;69691;48.172;17.070;2024-03-02T01:28:15;10.20;99.90
14877;DHT22;69691;48.172;17.070;2024-03-02T01:30:41;10.20;99.90
14877;DHT22;69691;48.172;17.070;2024-03-02T01:33:07;10.10;99.90
14877;DHT22;69691;48.172;17.070;2024-03-02T01:35:33;10.10;99.90
14877;DHT22;69691;48.172;17.070;2024-03-02T01:38:00;10.10;99.90
14877;DHT22;69691;48.172;17.070;2024-03-02T01:40:27;10.10;99.90
14877;DHT22;69691;48.172;17.070;2024-03-02T01:42:54;10.10;99.90
14877;DHT22;69691;48.172;17.070;2024-03-02T01:45:21;10.10;99.90
14877;DHT22;69691;48.172;17.070;2024-03-02T01:47:47;10.00;99.90
14877;DHT22;69691;48.172;17.070;2024-03-02T01:50:13;10.00;99.90
14877;DHT22;69691;48.172;17.070;2024-03-02T01:52:39;10.00;99.90
14877;DHT22;69691;48.172;17.070;2024-03-02T01:55:06;10.00;99.90
14877;DHT22;69691;48.172;17.070;2024-03-02T01:57:33;10.00;99.90
14877;DHT22;69691;48.172;17.070;2024-03-02T02:00:00;10.00;99.90
14877;DHT22;69691;48.172;17.070;2024-03-02T02:02:26;10.00;99.90
14877;DHT22;69691;48.172;17.070;2024-03-02T02:04:52;10.00;99.90
14877;DHT22;69691;48.172;17.070;2024-03-02T02:07:18;10.00;99.90
14877;DHT22;69691;48.172;17.070;2024-03-02T02:09:44;9.90;99.90
14877;DHT22;69691;48.172;17.070;2024-03-02T02:12:10;9.80;99.90
14877;DHT22;69691;48.172;17.070;2024-03-02T02:14:37;9.80;99.90
14877;DHT22;69691;48.172;17.070;2024-03-02T02:17:03;9.70;99.90
14877;DHT22;69691;48.172;17.070;2024-03-02T02:19:28;9.70;99.90
14877;DHT22;69691;48.172;17.070;2024-03-02T02:21:55;9.70;99.90
14877;DHT22;69691;48.172;17.070;2024-03-02T02:24:21;9.60;99.90
14877;DHT22;69691;48.172;17.070;2024-03-02T02:26:47;9.60;99.90
14877;DHT22;69691;48.172;17.070;2024-03-02T02:29:12;9.60;99.90
14877;DHT22;69691;48.172;17.070;2024-03-02T02:31:39;9.60;99.90
14877;DHT22;69691;48.172;17.070;2024-03-02T02:34:06;9.70;99.90
14877;DHT22;69691;48.172;17.070;2024-03-02T02:36:33;9.70;99.90
14877;DHT22;69691;48.172;17.070;2024-03-02T02:39:02;9.70;99.90
14877;DHT22;69691;48.172;17.070;2024-03-02T02:41:32;9.70;99.90
14877;DHT22;69691;48.172;17.070;2024-03-02T02:43:58;9.80;99.90
14877;DHT22;69691;48.172;17.070;2024-03-02T02:46:24;9.80;99.90
14877;DHT22;69691;48.172;17.070;2024-03-02T02:48:49;9.80;99.90
14877;DHT22;69691;48.172;17.070;2024-03-02T02:51:17;9.90;99.90
14877;DHT22;69691;48.172;17.070;2024-03-02T02:53:43;9.90;99.90
14877;DHT22;69691;48.172;17.070;2024-03-02T02:56:09;10.00;99.90
14877;DHT22;69691;48.172;17.070;2024-03-02T02:58:35;9.90;99.90
14877;DHT22;69691;48.172;17.070;2024-03-02T03:01:01;9.90;99.90
14877;DHT22;69691;48.172;17.070;2024-03-02T03:03:27;10.00;99.90
14877;DHT22;69691;48.172;17.070;2024-03-02T03:05:53;10.00;99.90
14877;DHT22;69691;48.172;17.070;2024-03-02T03:08:19;10.00;99.90
14877;DHT22;69691;48.172;17.070;2024-03-02T03:10:45;10.00;99.90
14877;DHT22;69691;48.172;17.070;2024-03-02T03:13:11;10.00;99.90
14877;DHT22;69691;48.172;17.070;2024-03-02T03:15:37;10.00;99.90
14877;DHT22;69691;48.172;17.070;2024-03-02T03:18:03;10.00;99.90
14877;DHT22;69691;48.172;17.070;2024-03-02T03:20:30;10.00;99.90
14877;DHT22;69691;48.172;17.070;2024-03-02T03:22:59;10.00;99.90
14877;DHT22;69691;48.172;17.070;2024-03-02T03:25:25;10.00;99.90
14877;DHT22;69691;48.172;17.070;2024-03-02T03:27:51;10.00;99.90
14877;DHT22;69691;48.172;17.070;2024-03-02T03:30:18;9.90;99.90
14877;DHT22;69691;48.172;17.070;2024-03-02T03:32:44;9.90;99.90
14877;DHT22;69691;48.172;17.070;2024-03-02T03:35:10;9.90;99.90
14877;DHT22;69691;48.172;17.070;2024-03-02T03:37:36;9.90;99.90
14877;DHT22;69691;48.172;17.070;2024-03-02T03:40:02;9.80;99.90
14877;DHT22;69691;48.172;17.070;2024-03-02T03:42:32;9.80;99.90
14877;DHT22;69691;48.172;17.070;2024-03-02T03:44:58;9.80;99.90
14877;DHT22;69691;48.172;17.070;2024-03-02T03:47:24;9.70;99.90
14877;DHT22;69691;48.172;17.070;2024-03-02T03:49:50;9.70;99.90
14877;DHT22;69691;48.172;17.070;2024-03-02T03:52:16;9.70;99.90
14877;DHT22;69691;48.172;17.070;2024-03-02T03:54:41;9.70;99.90
14877;DHT22;69691;48.172;17.070;2024-03-02T03:57:08;9.60;99.90
14877;DHT22;69691;48.172;17.070;2024-03-02T03:59:34;9.60;99.90
14877;DHT22;69691;48.172;17.070;2024-03-02T04:02:00;9.70;99.90
14877;DHT22;69691;48.172;17.070;2024-03-02T04:04:26;9.70;99.90
14877;DHT22;69691;48.172;17.070;2024-03-02T04:06:51;9.70;99.90
14877;DHT22;69691;48.172;17.070;2024-03-02T04:09:17;9.70;99.90
14877;DHT22;69691;48.172;17.070;2024-03-02T04:11:43;9.70;99.90
14877;DHT22;69691;48.172;17.070;2024-03-02T04:14:09;9.70;99.90
14877;DHT22;69691;48.172;17.070;2024-03-02T04:16:35;9.70;99.90
14877;DHT22;69691;48.172;17.070;2024-03-02T04:19:01;9.60;99.90
14877;DHT22;69691;48.172;17.070;2024-03-02T04:21:27;9.70;99.90
14877;DHT22;69691;48.172;17.070;2024-03-02T04:23:53;9.70;99.90
14877;DHT22;69691;48.172;17.070;2024-03-02T04:26:23;9.70;99.90
14877;DHT22;69691;48.172;17.070;2024-03-02T04:28:48;9.70;99.90
14877;DHT22;69691;48.172;17.070;2024-03-02T04:31:15;9.70;99.90
14877;DHT22;69691;48.172;17.070;2024-03-02T04:33:41;9.70;99.90
14877;DHT22;69691;48.172;17.070;2024-03-02T04:36:07;9.70;99.90
14877;DHT22;69691;48.172;17.070;2024-03-02T04:38:35;9.70;99.90
14877;DHT22;69691;48.172;17.070;2024-03-02T04:41:01;9.70;99.90
14877;DHT22;69691;48.172;17.070;2024-03-02T04:43:27;9.80;99.90
14877;DHT22;69691;48.172;17.070;2024-03-02T04:45:53;9.80;99.90
14877;DHT22;69691;48.172;17.070;2024-03-02T04:48:19;9.80;99.90
14877;DHT22;69691;48.172;17.070;2024-03-02T04:50:45;9.90;99.90
14877;DHT22;69691;48.172;17.070;2024-03-02T04:53:11;9.90;99.90
14877;DHT22;69691;48.172;17.070;2024-03-02T04:55:37;9.90;99.90
14877;DHT22;69691;48.172;17.070;2024-03-02T04:58:05;10.00;99.90
14877;DHT22;69691;48.172;17.070;2024-03-02T05:00:32;10.00;99.90
14877;DHT22;69691;48.172;17.070;2024-03-02T05:02:58;10.00;99.90
14877;DHT22;69691;48.172;17.070;2024-03-02T05:05:24;10.10;99.90
14877;DHT22;69691;48.172;17.070;2024-03-02T05:07:50;10.00;99.90
14877;DHT22;69691;48.172;17.070;2024-03-02T05:10:16;10.00;99.90
14877;DHT22;69691;48.172;17.070;2024-03-02T05:12:42;10.00;99.90
14877;DHT22;69691;48.172;17.070;2024-03-02T05:15:11;10.00;99.90
14877;DHT22;69691;48.172;17.070;2024-03-02T05:17:41;10.00;99.90
14877;DHT22;69691;48.172;17.070;2024-03-02T05:20:10;10.00;99.90
14877;DHT22;69691;48.172;17.070;2024-03-02T05:22:36;10.00;99.90
14877;DHT22;69691;48.172;17.070;2024-03-02T05:25:04;10.00;99.90
14877;DHT22;69691;48.172;17.070;2024-03-02T05:27:30;10.10;99.90
14877;DHT22;69691;48.172;17.070;2024-03-02T05:29:58;10.10;99.90
14877;DHT22;69691;48.172;17.070;2024-03-02T05:32:24;10.10;99.90
14877;DHT22;69691;48.172;17.070;2024-03-02T05:34:50;10.20;99.90
14877;DHT22;69691;48.172;17.070;2024-03-02T05:37:17;10.20;99.90
14877;DHT22;69691;48.172;17.070;2024-03-02T05:39:43;10.10;99.90
14877;DHT22;69691;48.172;17.070;2024-03-02T05:42:09;10.10;99.90
14877;DHT22;69691;48.172;17.070;2024-03-02T05:44:36;10.20;99.90
14877;DHT22;69691;48.172;17.070;2024-03-02T05:47:02;10.20;99.90
14877;DHT22;69691;48.172;17.070;2024-03-02T05:49:29;10.20;99.90
14877;DHT22;69691;48.172;17.070;2024-03-02T05:51:55;10.20;99.90
14877;DHT22;69691;48.172;17.070;2024-03-02T05:54:21;10.30;99.90
14877;DHT22;69691;48.172;17.070;2024-03-02T05:56:47;10.20;99.90
14877;DHT22;69691;48.172;17.070;2024-03-02T05:59:13;10.30;99.90
14877;DHT22;69691;48.172;17.070;2024-03-02T06:01:40;10.30;99.90
14877;DHT22;69691;48.172;17.070;2024-03-02T06:04:06;10.30;99.90
14877;DHT22;69691;48.172;17.070;2024-03-02T06:06:33;10.30;99.90
14877;DHT22;69691;48.172;17.070;2024-03-02T06:09:03;10.30;99.90
14877;DHT22;69691;48.172;17.070;2024-03-02T06:11:36;10.30;99.90
14877;DHT22;69691;48.172;17.070;2024-03-02T06:14:07;10.40;99.90
14877;DHT22;69691;48.172;17.070;2024-03-02T06:16:34;10.40;99.90
14877;DHT22;69691;48.172;17.070;2024-03-02T06:19:00;10.40;99.90
14877;DHT22;69691;48.172;17.070;2024-03-02T06:21:27;10.50;99.90
14877;DHT22;69691;48.172;17.070;2024-03-02T06:23:53;10.60;99.90
14877;DHT22;69691;48.172;17.070;2024-03-02T06:26:20;10.60;99.90
14877;DHT22;69691;48.172;17.070;2024-03-02T06:28:46;10.60;99.90
14877;DHT22;69691;48.172;17.070;2024-03-02T06:31:12;10.60;99.90
14877;DHT22;69691;48.172;17.070;2024-03-02T06:33:38;10.70;99.90
14877;DHT22;69691;48.172;17.070;2024-03-02T06:36:04;10.70;99.90
14877;DHT22;69691;48.172;17.070;2024-03-02T06:38:30;10.70;99.90
14877;DHT22;69691;48.172;17.070;2024-03-02T06:40:59;10.90;99.90
14877;DHT22;69691;48.172;17.070;2024-03-02T06:43:24;11.00;99.90
14877;DHT22;69691;48.172;17.070;2024-03-02T06:45:51;11.00;99.90
14877;DHT22;69691;48.172;17.070;2024-03-02T06:48:17;11.00;99.90
14877;DHT22;69691;48.172;17.070;2024-03-02T06:50:47;11.20;99.90
14877;DHT22;69691;48.172;17.070;2024-03-02T06:53:16;11.30;99.90
14877;DHT22;69691;48.172;17.070;2024-03-02T06:55:46;11.30;99.90
14877;DHT22;69691;48.172;17.070;2024-03-02T06:58:13;11.30;99.90
14877;DHT22;69691;48.172;17.070;2024-03-02T07:00:40;11.50;99.90
14877;DHT22;69691;48.172;17.070;2024-03-02T07:03:07;11.50;99.90
14877;DHT22;69691;48.172;17.070;2024-03-02T07:05:33;11.60;99.90
14877;DHT22;69691;48.172;17.070;2024-03-02T07:07:59;11.70;99.90
14877;DHT22;69691;48.172;17.070;2024-03-02T07:10:27;11.80;99.90
14877;DHT22;69691;48.172;17.070;2024-03-02T07:12:53;11.90;99.90
14877;DHT22;69691;48.172;17.070;2024-03-02T07:15:19;12.00;99.90
14877;DHT22;69691;48.172;17.070;2024-03-02T07:17:53;12.10;99.80
14877;DHT22;69691;48.172;17.070;2024-03-02T07:20:19;12.10;99.50
14877;DHT22;69691;48.172;17.070;2024-03-02T07:22:45;12.10;99.60
14877;DHT22;69691;48.172;17.070;2024-03-02T07:25:12;12.20;99.30
14877;DHT22;69691;48.172;17.070;2024-03-02T07:27:39;12.40;99.20
14877;DHT22;69691;48.172;17.070;2024-03-02T07:30:06;12.50;99.00
14877;DHT22;69691;48.172;17.070;2024-03-02T07:32:32;12.60;98.60
14877;DHT22;69691;48.172;17.070;2024-03-02T07:34:58;12.50;98.00
14877;DHT22;69691;48.172;17.070;2024-03-02T07:37:24;12.50;98.00
14877;DHT22;69691;48.172;17.070;2024-03-02T07:39:50;12.50;98.00
14877;DHT22;69691;48.172;17.070;2024-03-02T07:42:16;12.50;98.00
14877;DHT22;69691;48.172;17.070;2024-03-02T07:44:44;12.40;97.50
14877;DHT22;69691;48.172;17.070;2024-03-02T07:47:11;12.40;97.60
14877;DHT22;69691;48.172;17.070;2024-03-02T07:49:37;12.40;97.50
14877;DHT22;69691;48.172;17.070;2024-03-02T07:52:03;12.40;97.30
14877;DHT22;69691;48.172;17.070;2024-03-02T07:54:29;12.40;97.20
14877;DHT22;69691;48.172;17.070;2024-03-02T07:56:55;12.50;97.20
14877;DHT22;69691;48.172;17.070;2024-03-02T07:59:21;12.50;97.20
14877;DHT22;69691;48.172;17.070;2024-03-02T08:01:48;12.60;96.80
14877;DHT22;69691;48.172;17.070;2024-03-02T08:04:14;12.60;96.50
14877;DHT22;69691;48.172;17.070;2024-03-02T08:06:40;12.60;96.40
14877;DHT22;69691;48.172;17.070;2024-03-02T08:09:06;12.60;96.40
14877;DHT22;69691;48.172;17.070;2024-03-02T08:11:35;12.70;96.20
14877;DHT22;69691;48.172;17.070;2024-03-02T08:14:03;12.70;96.10
14877;DHT22;69691;48.172;17.070;2024-03-02T08:16:29;12.80;95.90
14877;DHT22;69691;48.172;17.070;2024-03-02T08:18:54;12.80;95.70
14877;DHT22;69691;48.172;17.070;2024-03-02T08:21:24;13.00;95.60
14877;DHT22;69691;48.172;17.070;2024-03-02T08:23:50;12.90;95.30
14877;DHT22;69691;48.172;17.070;2024-03-02T08:26:17;12.90;95.10
14877;DHT22;69691;48.172;17.070;2024-03-02T08:28:42;12.80;95.00
14877;DHT22;69691;48.172;17.070;2024-03-02T08:31:10;12.80;95.00
14877;DHT22;69691;48.172;17.070;2024-03-02T08:33:36;12.90;95.00
14877;DHT22;69691;48.172;17.070;2024-03-02T08:36:02;13.10;94.80
14877;DHT22;69691;48.172;17.070;2024-03-02T08:38:28;13.20;94.50
14877;DHT22;69691;48.172;17.070;2024-03-02T08:40:55;13.40;94.10
14877;DHT22;69691;48.172;17.070;2024-03-02T08:43:21;13.60;93.80
14877;DHT22;69691;48.172;17.070;2024-03-02T08:45:48;13.80;93.50
14877;DHT22;69691;48.172;17.070;2024-03-02T08:48:15;13.90;92.80
14877;DHT22;69691;48.172;17.070;2024-03-02T08:50:40;13.90;92.10
14877;DHT22;69691;48.172;17.070;2024-03-02T08:53:06;13.80;91.80
14877;DHT22;69691;48.172;17.070;2024-03-02T08:55:32;13.90;91.60
14877;DHT22;69691;48.172;17.070;2024-03-02T08:57:58;14.00;91.30
14877;DHT22;69691;48.172;17.070;2024-03-02T09:00:24;14.10;91.10
14877;DHT22;69691;48.172;17.070;2024-03-02T09:02:51;14.20;90.70
14877;DHT22;69691;48.172;17.070;2024-03-02T09:05:16;14.40;90.30
14877;DHT22;69691;48.172;17.070;2024-03-02T09:07:42;14.60;90.10
14877;DHT22;69691;48.172;17.070;2024-03-02T09:10:09;14.60;89.00
14877;DHT22;69691;48.172;17.070;2024-03-02T09:12:35;14.60;88.10
14877;DHT22;69691;48.172;17.070;2024-03-02T09:15:02;14.70;87.90
14877;DHT22;69691;48.172;17.070;2024-03-02T09:17:29;14.80;86.80
14877;DHT22;69691;48.172;17.070;2024-03-02T09:19:55;14.80;86.40
14877;DHT22;69691;48.172;17.070;2024-03-02T09:22:21;14.80;85.10
14877;DHT22;69691;48.172;17.070;2024-03-02T09:24:47;15.00;84.80
14877;DHT22;69691;48.172;17.070;2024-03-02T09:27:13;15.10;84.10
14877;DHT22;69691;48.172;17.070;2024-03-02T09:29:39;15.30;83.00
14877;DHT22;69691;48.172;17.070;2024-03-02T09:32:05;15.30;82.00
14877;DHT22;69691;48.172;17.070;2024-03-02T09:34:32;15.40;81.30
14877;DHT22;69691;48.172;17.070;2024-03-02T09:36:58;15.40;80.20
14877;DHT22;69691;48.172;17.070;2024-03-02T09:39:24;15.60;79.60
14877;DHT22;69691;48.172;17.070;2024-03-02T09:41:53;15.60;79.60
14877;DHT22;69691;48.172;17.070;2024-03-02T09:44:19;15.50;78.70
14877;DHT22;69691;48.172;17.070;2024-03-02T09:46:49;15.60;78.80
14877;DHT22;69691;48.172;17.070;2024-03-02T09:49:15;15.70;78.20
14877;DHT22;69691;48.172;17.070;2024-03-02T09:51:47;15.60;77.40
14877;DHT22;69691;48.172;17.070;2024-03-02T09:54:17;15.60;77.50
14877;DHT22;69691;48.172;17.070;2024-03-02T09:56:44;15.50;77.90
14877;DHT22;69691;48.172;17.070;2024-03-02T09:59:10;15.50;77.60
14877;DHT22;69691;48.172;17.070;2024-03-02T10:01:36;15.50;77.50
14877;DHT22;69691;48.172;17.070;2024-03-02T10:04:02;15.50;77.50
14877;DHT22;69691;48.172;17.070;2024-03-02T10:06:28;15.60;77.50
14877;DHT22;69691;48.172;17.070;2024-03-02T10:08:55;15.60;77.20
14877;DHT22;69691;48.172;17.070;2024-03-02T10:11:31;15.60;76.80
14877;DHT22;69691;48.172;17.070;2024-03-02T10:14:13;15.60;76.90
14877;DHT22;69691;48.172;17.070;2024-03-02T10:16:43;15.60;76.90
14877;DHT22;69691;48.172;17.070;2024-03-02T10:19:20;15.50;77.30
14877;DHT22;69691;48.172;17.070;2024-03-02T10:21:51;15.60;77.00
14877;DHT22;69691;48.172;17.070;2024-03-02T10:24:19;15.50;77.10
14877;DHT22;69691;48.172;17.070;2024-03-02T10:26:46;15.70;77.20
14877;DHT22;69691;48.172;17.070;2024-03-02T10:29:12;15.70;76.40
14877;DHT22;69691;48.172;17.070;2024-03-02T10:31:43;15.60;76.40
14877;DHT22;69691;48.172;17.070;2024-03-02T10:34:10;15.50;76.50
14877;DHT22;69691;48.172;17.070;2024-03-02T10:36:41;15.30;77.00
14877;DHT22;69691;48.172;17.070;2024-03-02T10:39:08;15.30;77.40
14877;DHT22;69691;48.172;17.070;2024-03-02T10:41:36;15.40;77.30
14877;DHT22;69691;48.172;17.070;2024-03-02T10:44:03;15.30;77.40
14877;DHT22;69691;48.172;17.070;2024-03-02T10:46:34;15.50;77.60
14877;DHT22;69691;48.172;17.070;2024-03-02T10:49:01;15.50;77.10
14877;DHT22;69691;48.172;17.070;2024-03-02T10:51:33;15.30;77.10
14877;DHT22;69691;48.172;17.070;2024-03-02T10:54:02;15.10;77.80
14877;DHT22;69691;48.172;17.070;2024-03-02T10:56:31;15.10;78.00
14877;DHT22;69691;48.172;17.070;2024-03-02T11:01:53;15.20;78.20
14877;DHT22;69691;48.172;17.070;2024-03-02T11:04:21;15.10;78.40
14877;DHT22;69691;48.172;17.070;2024-03-02T11:06:51;15.10;78.20
14877;DHT22;69691;48.172;17.070;2024-03-02T11:09:20;15.10;78.30
14877;DHT22;69691;48.172;17.070;2024-03-02T11:12:12;15.10;78.60
14877;DHT22;69691;48.172;17.070;2024-03-02T11:14:44;15.10;78.60
14877;DHT22;69691;48.172;17.070;2024-03-02T11:17:14;14.90;79.20
14877;DHT22;69691;48.172;17.070;2024-03-02T11:19:44;14.80;79.30
14877;DHT22;69691;48.172;17.070;2024-03-02T11:22:11;14.80;79.50
14877;DHT22;69691;48.172;17.070;2024-03-02T11:24:37;14.50;80.00
14877;DHT22;69691;48.172;17.070;2024-03-02T11:27:07;14.40;80.90
14877;DHT22;69691;48.172;17.070;2024-03-02T11:34:51;14.20;82.20
14877;DHT22;69691;48.172;17.070;2024-03-02T11:37:20;14.10;82.80
14877;DHT22;69691;48.172;17.070;2024-03-02T11:39:48;14.10;83.30
14877;DHT22;69691;48.172;17.070;2024-03-02T11:42:15;14.00;83.70
14877;DHT22;69691;48.172;17.070;2024-03-02T11:44:44;13.90;84.20
14877;DHT22;69691;48.172;17.070;2024-03-02T11:47:13;13.80;84.80
14877;DHT22;69691;48.172;17.070;2024-03-02T11:49:48;13.80;85.40
14877;DHT22;69691;48.172;17.070;2024-03-02T11:52:16;13.70;85.70
14877;DHT22;69691;48.172;17.070;2024-03-02T11:54:46;13.70;85.90
14877;DHT22;69691;48.172;17.070;2024-03-02T11:57:21;13.80;86.20
14877;DHT22;69691;48.172;17.070;2024-03-02T11:59:48;13.80;86.40
14877;DHT22;69691;48.172;17.070;2024-03-02T12:02:21;13.80;86.40
14877;DHT22;69691;48.172;17.070;2024-03-02T12:04:48;13.90;86.50
14877;DHT22;69691;48.172;17.070;2024-03-02T12:07:22;13.80;86.50
14877;DHT22;69691;48.172;17.070;2024-03-02T12:10:01;13.70;87.10
14877;DHT22;69691;48.172;17.070;2024-03-02T12:12:28;13.50;87.70
14877;DHT22;69691;48.172;17.070;2024-03-02T12:14:54;13.40;88.00
14877;DHT22;69691;48.172;17.070;2024-03-02T12:17:22;13.30;88.50
14877;DHT22;69691;48.172;17.070;2024-03-02T12:19:48;13.20;89.20
14877;DHT22;69691;48.172;17.070;2024-03-02T12:22:15;13.20;89.80
14877;DHT22;69691;48.172;17.070;2024-03-02T12:24:44;13.10;90.10
14877;DHT22;69691;48.172;17.070;2024-03-02T12:27:15;13.10;90.30
14877;DHT22;69691;48.172;17.070;2024-03-02T12:29:41;13.10;90.50
14877;DHT22;69691;48.172;17.070;2024-03-02T12:32:07;13.10;90.50
14877;DHT22;69691;48.172;17.070;2024-03-02T12:34:33;13.20;90.50
14877;DHT22;69691;48.172;17.070;2024-03-02T12:36:59;13.20;90.50
14877;DHT22;69691;48.172;17.070;2024-03-02T12:39:25;13.30;90.90
14877;DHT22;69691;48.172;17.070;2024-03-02T12:41:52;13.40;90.50
14877;DHT22;69691;48.172;17.070;2024-03-02T12:44:19;13.40;90.50
14877;DHT22;69691;48.172;17.070;2024-03-02T12:46:46;13.50;90.60
14877;DHT22;69691;48.172;17.070;2024-03-02T12:49:14;13.50;90.40
14877;DHT22;69691;48.172;17.070;2024-03-02T12:51:43;13.60;90.40
14877;DHT22;69691;48.172;17.070;2024-03-02T12:54:12;13.60;90.30
14877;DHT22;69691;48.172;17.070;2024-03-02T12:56:38;13.40;90.50
14877;DHT22;69691;48.172;17.070;2024-03-02T12:59:05;13.50;90.50
14877;DHT22;69691;48.172;17.070;2024-03-02T13:01:31;13.50;90.40
14877;DHT22;69691;48.172;17.070;2024-03-02T13:03:58;13.60;90.50
14877;DHT22;69691;48.172;17.070;2024-03-02T13:06:25;13.60;90.50
14877;DHT22;69691;48.172;17.070;2024-03-02T13:08:55;13.60;90.50
14877;DHT22;69691;48.172;17.070;2024-03-02T13:11:23;13.50;90.50
14877;DHT22;69691;48.172;17.070;2024-03-02T13:13:50;13.40;90.50
14877;DHT22;69691;48.172;17.070;2024-03-02T13:16:18;13.40;90.70
14877;DHT22;69691;48.172;17.070;2024-03-02T13:18:45;13.50;90.70
14877;DHT22;69691;48.172;17.070;2024-03-02T13:21:11;13.50;90.60
14877;DHT22;69691;48.172;17.070;2024-03-02T13:23:37;13.50;90.60
14877;DHT22;69691;48.172;17.070;2024-03-02T13:26:03;13.50;90.60
14877;DHT22;69691;48.172;17.070;2024-03-02T13:28:29;13.50;90.70
14877;DHT22;69691;48.172;17.070;2024-03-02T13:30:55;13.40;90.60
14877;DHT22;69691;48.172;17.070;2024-03-02T13:33:21;13.40;90.70
14877;DHT22;69691;48.172;17.070;2024-03-02T13:35:50;13.30;90.80
14877;DHT22;69691;48.172;17.070;2024-03-02T13:38:18;13.30;90.90
14877;DHT22;69691;48.172;17.070;2024-03-02T13:40:44;13.30;91.00
14877;DHT22;69691;48.172;17.070;2024-03-02T13:43:11;13.40;90.90
14877;DHT22;69691;48.172;17.070;2024-03-02T13:45:38;13.30;90.90
14877;DHT22;69691;48.172;17.070;2024-03-02T13:48:05;13.40;91.10
14877;DHT22;69691;48.172;17.070;2024-03-02T13:50:31;13.30;91.10
14877;DHT22;69691;48.172;17.070;2024-03-02T13:52:58;13.40;91.20
14877;DHT22;69691;48.172;17.070;2024-03-02T13:55:23;13.40;91.20
14877;DHT22;69691;48.172;17.070;2024-03-02T13:57:49;13.40;91.20
14877;DHT22;69691;48.172;17.070;2024-03-02T14:00:18;13.30;91.30
14877;DHT22;69691;48.172;17.070;2024-03-02T14:02:45;13.30;91.40
14877;DHT22;69691;48.172;17.070;2024-03-02T14:05:12;13.20;91.40
14877;DHT22;69691;48.172;17.070;2024-03-02T14:07:39;13.10;91.60
14877;DHT22;69691;48.172;17.070;2024-03-02T14:10:06;13.10;91.70
14877;DHT22;69691;48.172;17.070;2024-03-02T14:12:32;13.10;91.80
14877;DHT22;69691;48.172;17.070;2024-03-02T14:14:58;13.00;92.00
14877;DHT22;69691;48.172;17.070;2024-03-02T14:17:27;13.10;92.30
14877;DHT22;69691;48.172;17.070;2024-03-02T14:19:57;13.10;92.20
14877;DHT22;69691;48.172;17.070;2024-03-02T14:22:25;13.10;92.30
14877;DHT22;69691;48.172;17.070;2024-03-02T14:24:51;13.10;92.40
14877;DHT22;69691;48.172;17.070;2024-03-02T14:27:16;13.10;92.30
14877;DHT22;69691;48.172;17.070;2024-03-02T14:29:43;13.00;92.50
14877;DHT22;69691;48.172;17.070;2024-03-02T14:32:09;13.00;92.70
14877;DHT22;69691;48.172;17.070;2024-03-02T14:34:34;13.00;92.80
14877;DHT22;69691;48.172;17.070;2024-03-02T14:37:00;13.00;92.90
14877;DHT22;69691;48.172;17.070;2024-03-02T14:39:26;13.10;92.90
14877;DHT22;69691;48.172;17.070;2024-03-02T14:41:52;13.10;93.00
14877;DHT22;69691;48.172;17.070;2024-03-02T14:44:20;13.00;92.90
14877;DHT22;69691;48.172;17.070;2024-03-02T14:46:49;13.00;93.10
14877;DHT22;69691;48.172;17.070;2024-03-02T14:49:16;13.00;93.30
14877;DHT22;69691;48.172;17.070;2024-03-02T14:51:41;13.00;93.30
14877;DHT22;69691;48.172;17.070;2024-03-02T14:54:07;13.00;93.30
14877;DHT22;69691;48.172;17.070;2024-03-02T14:56:34;13.00;93.30
14877;DHT22;69691;48.172;17.070;2024-03-02T14:58:59;12.90;93.40
14877;DHT22;69691;48.172;17.070;2024-03-02T15:01:25;12.90;93.60
14877;DHT22;69691;48.172;17.070;2024-03-02T15:03:51;12.80;93.70
14877;DHT22;69691;48.172;17.070;2024-03-02T15:06:18;12.70;93.90
14877;DHT22;69691;48.172;17.070;2024-03-02T15:08:44;12.70;93.90
14877;DHT22;69691;48.172;17.070;2024-03-02T15:11:12;12.70;94.10
14877;DHT22;69691;48.172;17.070;2024-03-02T15:13:38;12.70;94.10
14877;DHT22;69691;48.172;17.070;2024-03-02T15:16:04;12.70;94.20
14877;DHT22;69691;48.172;17.070;2024-03-02T15:18:30;12.60;94.30
14877;DHT22;69691;48.172;17.070;2024-03-02T15:20:56;12.50;94.50
14877;DHT22;69691;48.172;17.070;2024-03-02T15:23:22;12.50;94.70
14877;DHT22;69691;48.172;17.070;2024-03-02T15:25:48;12.40;94.80
14877;DHT22;69691;48.172;17.070;2024-03-02T15:28:14;12.40;95.00